Time;durP1;ratioP1;P1;durP2;ratioP2;P2;SDS_P1;SDS_P2;PMS_P1;PMS_P2;Temp;Humidity;BMP_temperature;BMP_pressure;BME280_temperature;BME280_humidity;BME280_pressure;Samples;Min_cycle;Max_cycle;Signal;HPM_P1;HPM_P2
2021/12/27 00:01:30;;;;;;;42.95;21.75;;;;;;;1.70;100.00;99313.88;4858519;29;20101;-90
2021/12/27 00:04:03;;;;;;;41.30;21.75;;;;;;;1.68;100.00;99311.28;4861579;29;20037;-90
2021/12/27 00:06:38;;;;;;;46.10;21.80;;;;;;;1.65;100.00;99306.16;4875825;29;20501;-90
2021/12/27 00:09:13;;;;;;;45.72;22.65;;;;;;;1.84;100.00;99327.38;4863219;29;20133;-90
2021/12/27 00:11:50;;;;;;;46.38;22.95;;;;;;;1.87;100.00;99323.81;4861230;29;20053;-92
2021/12/27 00:14:18;;;;;;;41.42;21.90;;;;;;;1.89;100.00;99325.47;4858304;29;20449;-90
2021/12/27 00:17:01;;;;;;;44.45;22.05;;;;;;;1.56;100.00;99266.44;4858147;29;20102;-90
2021/12/27 00:19:47;;;;;;;43.03;21.73;;;;;;;1.73;100.00;99285.91;4862315;29;20064;-90
2021/12/27 00:22:20;;;;;;;43.85;21.73;;;;;;;1.66;100.00;99275.69;4859939;29;20052;-89
2021/12/27 00:24:50;;;;;;;40.67;21.15;;;;;;;1.74;100.00;99284.16;4857760;29;20108;-90
2021/12/27 00:27:20;;;;;;;41.25;20.70;;;;;;;1.80;100.00;99298.78;4867436;29;20050;-89
2021/12/27 00:29:49;;;;;;;43.83;21.20;;;;;;;1.63;100.00;99260.97;4861639;29;20101;-89
2021/12/27 00:32:16;;;;;;;45.72;22.60;;;;;;;1.71;100.00;99272.06;4866256;29;20053;-89
2021/12/27 00:34:43;;;;;;;42.17;20.52;;;;;;;1.92;100.00;99306.25;4856904;29;20065;-89
2021/12/27 00:37:19;;;;;;;42.97;20.88;;;;;;;1.62;100.00;99259.28;4861437;29;20521;-90
2021/12/27 00:39:49;;;;;;;38.00;21.05;;;;;;;1.81;100.00;99274.41;4862967;29;20037;-89
2021/12/27 00:42:18;;;;;;;46.97;21.63;;;;;;;1.69;100.00;99258.19;4862332;29;20057;-89
2021/12/27 00:44:47;;;;;;;38.55;20.55;;;;;;;1.86;100.00;99285.56;4857778;29;20086;-90
2021/12/27 00:47:22;;;;;;;41.05;21.27;;;;;;;1.86;100.00;99289.03;4860187;29;20087;-90
2021/12/27 00:49:54;;;;;;;43.05;21.23;;;;;;;1.80;100.00;99277.91;4861518;29;20054;-90
2021/12/27 00:52:23;;;;;;;41.97;21.35;;;;;;;1.70;100.00;99259.91;4858705;29;20550;-90
2021/12/27 00:54:53;;;;;;;42.53;21.38;;;;;;;1.82;100.00;99274.34;4856884;29;20064;-90
2021/12/27 00:57:25;;;;;;;40.58;20.52;;;;;;;1.88;100.00;99281.16;4861096;29;20081;-90
2021/12/27 00:59:52;;;;;;;44.27;21.23;;;;;;;1.89;100.00;99282.88;4861564;29;20086;-90
2021/12/27 01:02:20;;;;;;;45.22;21.73;;;;;;;1.89;100.00;99272.44;4867620;29;20050;-90
2021/12/27 01:04:58;;;;;;;41.50;21.35;;;;;;;1.75;100.00;99244.09;4863981;29;20075;-91
2021/12/27 01:07:30;;;;;;;43.85;21.65;;;;;;;1.75;100.00;99234.50;4862954;29;20049;-91
2021/12/27 01:18:19;;;;;;;41.03;21.10;;;;;;;2.10;100.00;99298.72;4866307;29;20049;-90
2021/12/27 01:20:53;;;;;;;44.35;22.02;;;;;;;1.94;100.00;99267.91;4862663;29;20122;-90
2021/12/27 01:23:25;;;;;;;42.10;21.13;;;;;;;2.00;100.00;99288.63;4865371;29;20050;-89
2021/12/27 01:25:55;;;;;;;40.35;21.08;;;;;;;1.82;100.00;99255.22;4863696;29;20486;-90
2021/12/27 01:28:24;;;;;;;45.97;21.27;;;;;;;2.02;100.00;99294.66;4868761;29;20037;-90
2021/12/27 01:30:54;;;;;;;40.35;20.70;;;;;;;1.89;100.00;99269.81;4875127;29;20117;-90
2021/12/27 01:33:23;;;;;;;38.58;20.65;;;;;;;2.01;100.00;99287.72;4865589;29;20065;-90
2021/12/27 01:35:53;;;;;;;38.22;20.38;;;;;;;1.85;100.00;99261.22;4865981;29;20172;-90
2021/12/27 01:38:21;;;;;;;38.20;20.15;;;;;;;2.00;100.00;99284.25;4863614;29;20048;-90
2021/12/27 01:40:54;;;;;;;42.22;21.10;;;;;;;2.09;100.00;99293.56;4866938;29;20071;-90
2021/12/27 01:43:27;;;;;;;40.65;20.77;;;;;;;2.13;100.00;99299.53;4860287;29;20504;-90
2021/12/27 01:46:10;;;;;;;42.40;20.50;;;;;;;1.96;100.00;99268.72;4860350;29;20057;-90
2021/12/27 01:48:45;;;;;;;39.05;20.27;;;;;;;2.05;100.00;99284.94;4864945;29;20061;-90
2021/12/27 01:51:16;;;;;;;38.88;19.33;;;;;;;1.88;100.00;99255.91;4864143;29;20074;-90
2021/12/27 01:53:48;;;;;;;39.60;20.20;;;;;;;2.20;100.00;99299.31;4869466;29;20050;-89
2021/12/27 01:56:23;;;;;;;35.80;19.52;;;;;;;2.09;100.00;99281.34;4854758;29;20148;-89
2021/12/27 01:58:55;;;;;;;37.97;19.83;;;;;;;1.92;100.00;99243.59;4864352;29;20576;-89
2021/12/27 02:01:28;;;;;;;36.35;19.98;;;;;;;2.13;100.00;99284.72;4861801;29;20129;-89
2021/12/27 02:03:56;;;;;;;40.20;20.17;;;;;;;1.93;100.00;99240.09;4866742;29;20147;-90
2021/12/27 02:06:25;;;;;;;39.53;20.30;;;;;;;2.08;100.00;99265.72;4859755;29;20057;-90
2021/12/27 02:08:53;;;;;;;39.63;19.73;;;;;;;2.06;100.00;99257.09;4858623;29;20064;-90
2021/12/27 02:11:21;;;;;;;37.80;20.00;;;;;;;2.17;100.00;99272.44;4860240;29;20037;-90
2021/12/27 02:13:52;;;;;;;39.38;19.35;;;;;;;2.07;100.00;99262.25;4844379;29;20572;-90
2021/12/27 02:16:21;;;;;;;36.28;18.75;;;;;;;2.23;100.00;99286.16;4859262;29;20050;-89
2021/12/27 02:18:50;;;;;;;38.60;19.42;;;;;;;2.21;100.00;99287.94;4861833;29;20141;-89
2021/12/27 02:21:21;;;;;;;40.47;19.23;;;;;;;2.25;100.00;99291.34;4862229;29;20441;-89
2021/12/27 02:24:11;;;;;;;40.72;20.00;;;;;;;1.94;100.00;99245.25;4862277;29;20084;-89
2021/12/27 02:26:40;;;;;;;38.17;19.73;;;;;;;2.08;100.00;99273.56;4844192;29;20045;-90
2021/12/27 02:29:10;;;;;;;43.10;20.55;;;;;;;2.12;100.00;99275.19;4863769;29;20045;-90
2021/12/27 02:31:44;;;;;;;41.40;20.35;;;;;;;2.22;100.00;99289.66;4868768;29;20056;-90
2021/12/27 02:34:14;;;;;;;42.75;21.20;;;;;;;2.07;100.00;99253.56;4861081;29;20505;-92
2021/12/27 02:36:45;;;;;;;40.80;19.92;;;;;;;2.25;100.00;99276.50;4861688;29;20067;-90
2021/12/27 02:39:15;;;;;;;37.17;18.85;;;;;;;2.06;100.00;99244.03;4858692;29;20782;-90
2021/12/27 02:41:43;;;;;;;42.78;20.80;;;;;;;2.11;100.00;99243.00;4860101;29;20046;-90
2021/12/27 02:44:10;;;;;;;41.03;19.85;;;;;;;2.11;100.00;99245.59;4861513;29;20056;-90
2021/12/27 02:46:42;;;;;;;40.60;20.00;;;;;;;2.15;100.00;99241.16;4863502;29;20049;-89
2021/12/27 02:49:15;;;;;;;39.03;19.60;;;;;;;2.02;100.00;99211.09;4847030;29;20057;-89
2021/12/27 02:51:45;;;;;;;38.25;18.88;;;;;;;2.19;100.00;99245.38;4867352;29;20061;-89
2021/12/27 02:54:17;;;;;;;44.87;20.93;;;;;;;2.21;100.00;99247.91;4861088;29;20053;-88
2021/12/27 02:56:47;;;;;;;33.47;15.65;;;;;;;2.24;100.00;99232.16;4857654;29;20510;-89
2021/12/27 02:59:14;;;;;;;38.88;19.83;;;;;;;2.04;100.00;99210.16;4864729;29;20050;-89
2021/12/27 03:01:41;;;;;;;40.08;19.75;;;;;;;2.17;100.00;99231.50;4864603;29;20495;-89
2021/12/27 03:04:11;;;;;;;41.70;20.23;;;;;;;2.23;100.00;99235.66;4851495;29;20125;-89
2021/12/27 03:06:38;;;;;;;43.30;19.23;;;;;;;2.19;100.00;99224.50;4861764;29;20050;-89
2021/12/27 03:09:07;;;;;;;46.13;20.25;;;;;;;2.20;100.00;99235.78;4878827;29;20509;-89
2021/12/27 03:11:34;;;;;;;39.33;19.30;;;;;;;2.22;100.00;99232.19;4866376;29;20045;-89
2021/12/27 03:14:05;;;;;;;38.17;19.13;;;;;;;2.35;100.00;99253.59;4868540;29;20049;-89
2021/12/27 03:16:35;;;;;;;43.80;20.50;;;;;;;2.18;100.00;99217.56;4867347;29;20053;-89
2021/12/27 03:19:02;;;;;;;42.83;20.23;;;;;;;2.22;100.00;99223.50;4862190;29;20421;-92
2021/12/27 03:21:33;;;;;;;42.40;20.75;;;;;;;2.27;100.00;99219.84;4862849;29;20054;-91
2021/12/27 03:24:00;;;;;;;41.35;20.67;;;;;;;2.25;100.00;99219.06;4862566;29;20506;-91
2021/12/27 03:26:27;;;;;;;39.67;19.95;;;;;;;2.26;100.00;99225.13;4855866;29;20057;-91
2021/12/27 03:28:55;;;;;;;45.92;20.42;;;;;;;2.24;100.00;99212.13;4862923;29;20148;-92
2021/12/27 03:31:26;;;;;;;47.65;21.75;;;;;;;2.25;100.00;99224.28;4863516;29;20060;-91
2021/12/27 03:33:55;;;;;;;39.47;19.17;;;;;;;2.30;100.00;99230.22;4862128;29;20094;-92
2021/12/27 03:36:28;;;;;;;43.35;21.33;;;;;;;2.27;100.00;99227.69;4859388;29;20084;-92
2021/12/27 03:38:57;;;;;;;44.30;21.17;;;;;;;2.30;100.00;99231.97;4864812;29;20049;-91
2021/12/27 03:41:27;;;;;;;46.00;20.58;;;;;;;2.15;100.00;99204.59;4864210;29;20063;-91
2021/12/27 03:43:54;;;;;;;44.92;20.80;;;;;;;2.28;100.00;99223.31;4864287;29;20068;-91
2021/12/27 03:46:22;;;;;;;46.03;20.52;;;;;;;2.34;100.00;99229.22;4859005;29;20057;-91
2021/12/27 03:48:49;;;;;;;46.15;20.60;;;;;;;2.25;100.00;99213.81;4857915;29;20045;-90
2021/12/27 03:51:16;;;;;;;40.75;20.10;;;;;;;2.45;100.00;99244.53;4858036;29;20053;-91
2021/12/27 03:53:45;;;;;;;51.88;21.70;;;;;;;2.15;100.00;99191.53;4861783;29;20073;-91
2021/12/27 03:56:15;;;;;;;45.13;21.15;;;;;;;2.22;100.00;99195.63;4859552;29;20059;-91
2021/12/27 03:58:58;;;;;;;48.70;21.33;;;;;;;2.32;100.00;99209.28;4867935;29;20039;-91
2021/12/27 04:01:28;;;;;;;49.78;21.20;;;;;;;2.41;100.00;99229.84;4857585;29;20145;-89
2021/12/27 04:03:56;;;;;;;46.58;20.88;;;;;;;2.47;100.00;99242.75;4860300;29;20054;-89
2021/12/27 04:06:26;;;;;;;47.25;21.08;;;;;;;2.38;100.00;99227.34;4853898;29;20113;-89
2021/12/27 04:08:53;;;;;;;51.35;21.85;;;;;;;2.35;100.00;99214.41;4863665;29;20057;-88
2021/12/27 04:11:20;;;;;;;46.80;22.25;;;;;;;2.47;100.00;99235.75;4860893;29;20136;-89
2021/12/27 04:13:47;;;;;;;52.22;20.60;;;;;;;2.53;100.00;99239.91;4862616;29;20060;-89
2021/12/27 04:16:16;;;;;;;46.72;20.50;;;;;;;2.39;100.00;99209.00;4860614;29;20065;-89
2021/12/27 04:18:43;;;;;;;49.80;23.17;;;;;;;2.53;100.00;99234.69;4861061;29;20049;-90
2021/12/27 04:21:12;;;;;;;50.50;21.95;;;;;;;2.46;100.00;99223.59;4862320;29;20053;-89
2021/12/27 04:23:42;;;;;;;47.85;21.27;;;;;;;2.55;100.00;99224.19;4863842;29;20049;-88
2021/12/27 04:26:09;;;;;;;50.60;21.90;;;;;;;2.45;100.00;99211.44;4860106;29;20054;-89
2021/12/27 04:28:37;;;;;;;53.40;23.17;;;;;;;2.39;100.00;99198.56;4864745;29;20074;-89
2021/12/27 04:31:03;;;;;;;50.13;21.63;;;;;;;2.38;100.00;99199.47;4869138;29;20073;-89
2021/12/27 04:33:34;;;;;;;50.50;22.13;;;;;;;2.58;100.00;99230.16;4863772;29;20150;-89
2021/12/27 04:36:01;;;;;;;50.20;22.15;;;;;;;2.45;100.00;99198.38;4858217;29;20575;-89
2021/12/27 04:38:28;;;;;;;61.85;24.55;;;;;;;2.32;100.00;99178.78;4861896;29;20065;-89
2021/12/27 04:40:55;;;;;;;51.17;22.23;;;;;;;2.49;100.00;99195.66;4860920;29;20514;-88
2021/12/27 04:43:23;;;;;;;52.83;21.92;;;;;;;2.65;100.00;99228.22;4864514;29;20053;-89
2021/12/27 04:45:53;;;;;;;56.75;21.73;;;;;;;2.49;100.00;99185.22;4859672;29;20057;-90
2021/12/27 04:48:25;;;;;;;55.13;23.20;;;;;;;2.60;100.00;99210.06;4865847;29;20100;-91
2021/12/27 04:50:54;;;;;;;56.75;23.08;;;;;;;2.50;100.00;99189.53;4860054;29;20049;-89
2021/12/27 04:53:22;;;;;;;52.03;23.35;;;;;;;2.62;100.00;99217.84;4862394;29;20054;-89
2021/12/27 04:55:49;;;;;;;52.08;22.77;;;;;;;2.41;100.00;99177.59;4857989;29;20664;-89
2021/12/27 04:58:21;;;;;;;57.78;23.95;;;;;;;2.59;100.00;99216.19;4867629;29;20071;-89
2021/12/27 05:00:51;;;;;;;58.67;24.10;;;;;;;2.53;100.00;99198.09;4866586;29;20045;-89
2021/12/27 05:03:20;;;;;;;;;;;;;;;2.71;100.00;99209.69;4868809;29;20109;-89
2021/12/27 05:05:47;;;;;;;60.63;23.25;;;;;;;2.53;100.00;99178.94;4864362;29;19963;-90
2021/12/27 05:08:14;;;;;;;61.72;23.80;;;;;;;2.60;100.00;99183.06;4887037;29;20074;-89
2021/12/27 05:10:45;;;;;;;65.95;24.30;;;;;;;2.65;100.00;99186.41;4875120;29;20038;-89
2021/12/27 05:13:18;;;;;;;;;;;;;;;2.80;100.00;99217.25;4883499;29;20121;-90
2021/12/27 05:15:45;;;;;;;62.13;22.95;;;;;;;2.69;100.00;99187.97;4879454;29;19919;-89
2021/12/27 05:18:13;;;;;;;63.60;23.35;;;;;;;2.77;100.00;99194.66;4869014;29;20085;-90
2021/12/27 05:20:40;;;;;;;61.22;24.25;;;;;;;2.67;100.00;99176.75;4871119;29;20045;-92
2021/12/27 05:23:07;;;;;;;68.65;25.75;;;;;;;2.55;100.00;99148.41;4863471;29;20053;-89
2021/12/27 05:25:36;;;;;;;69.32;25.27;;;;;;;2.73;100.00;99173.91;4861214;29;20057;-90
2021/12/27 05:28:03;;;;;;;63.35;24.63;;;;;;;2.57;100.00;99146.59;4864309;29;20061;-90
2021/12/27 05:30:30;;;;;;;62.30;24.30;;;;;;;2.88;100.00;99194.28;4848083;29;20460;-90
2021/12/27 05:32:57;;;;;;;65.38;24.15;;;;;;;2.75;100.00;99157.25;4864511;29;20046;-90
2021/12/27 05:35:26;;;;;;;70.05;25.30;;;;;;;2.92;100.00;99174.13;4859217;29;20049;-90
2021/12/27 05:37:59;;;;;;;78.80;24.48;;;;;;;2.73;100.00;99142.53;4865440;29;20071;-90
2021/12/27 05:40:26;;;;;;;64.13;24.50;;;;;;;2.86;100.00;99148.19;4863629;29;20130;-89
2021/12/27 05:42:56;;;;;;;61.28;24.25;;;;;;;2.87;100.00;99150.75;4851837;29;20642;-89
2021/12/27 05:45:25;;;;;;;72.90;25.17;;;;;;;2.81;100.00;99136.16;4856436;29;20054;-89
2021/12/27 05:47:55;;;;;;;63.37;24.23;;;;;;;2.93;100.00;99155.75;4864485;29;20148;-90
2021/12/27 05:50:22;;;;;;;68.28;25.10;;;;;;;2.84;100.00;99124.69;4872472;29;20053;-89
2021/12/27 05:52:51;;;;;;;58.22;23.70;;;;;;;3.03;100.00;99162.34;4865537;29;20054;-89
2021/12/27 05:55:18;;;;;;;48.08;21.88;;;;;;;3.03;100.00;99138.81;4864152;29;20056;-89
2021/12/27 05:57:45;;;;;;;56.65;22.58;;;;;;;3.03;100.00;99130.13;4860127;29;20117;-88
2021/12/27 06:00:13;;;;;;;54.30;21.98;;;;;;;3.28;100.00;99169.34;4864690;29;22820;-90
2021/12/27 06:02:41;;;;;;;55.47;22.85;;;;;;;3.23;100.00;99163.41;4863448;29;20526;-89
2021/12/27 06:05:09;;;;;;;56.42;22.95;;;;;;;3.18;100.00;99150.47;4862985;29;20065;-89
2021/12/27 06:07:36;;;;;;;56.83;24.17;;;;;;;3.23;100.00;99159.03;4860302;29;20140;-89
2021/12/27 06:10:04;;;;;;;50.70;22.88;;;;;;;3.29;100.00;99168.44;4865506;29;20160;-89
2021/12/27 06:12:34;;;;;;;45.90;21.25;;;;;;;3.31;100.00;99167.44;4865961;29;20045;-89
2021/12/27 06:15:02;;;;;;;47.60;21.88;;;;;;;3.28;100.00;99162.34;4866922;29;20123;-89
2021/12/27 06:17:31;;;;;;;45.00;20.42;;;;;;;3.11;100.00;99136.78;4878320;29;20033;-89
2021/12/27 06:20:08;;;;;;;42.22;21.02;;;;;;;3.26;100.00;99158.06;4878255;29;20050;-90
2021/12/27 06:22:37;;;;;;;43.65;20.33;;;;;;;3.29;100.00;99169.28;4876495;29;20053;-89
2021/12/27 06:25:05;;;;;;;46.78;20.35;;;;;;;3.29;100.00;99157.97;4880235;29;20058;-89
2021/12/27 06:27:34;;;;;;;42.20;20.63;;;;;;;3.17;100.00;99144.41;4863670;29;20057;-89
2021/12/27 06:30:03;;;;;;;47.42;20.70;;;;;;;3.16;100.00;99147.91;4867344;29;20053;-89
2021/12/27 06:32:31;;;;;;;53.30;22.38;;;;;;;3.01;100.00;99130.19;4864403;29;20061;-89
2021/12/27 06:34:58;;;;;;;45.45;22.23;;;;;;;3.10;100.00;99155.16;4862846;29;20087;-90
2021/12/27 06:37:25;;;;;;;48.42;22.02;;;;;;;3.18;100.00;99169.66;4862630;29;20050;-88
2021/12/27 06:39:52;;;;;;;45.55;20.92;;;;;;;3.06;100.00;99156.16;4864022;29;20492;-89
2021/12/27 06:42:19;;;;;;;44.40;20.52;;;;;;;3.12;100.00;99172.50;4866580;29;20057;-88
2021/12/27 06:44:45;;;;;;;45.20;20.85;;;;;;;3.03;100.00;99151.91;4861867;29;20487;-88
2021/12/27 06:47:13;;;;;;;40.17;20.42;;;;;;;2.91;100.00;99136.66;4854387;29;20057;-89
2021/12/27 06:49:41;;;;;;;48.45;20.85;;;;;;;2.98;100.00;99153.00;4857910;29;20049;-91
2021/12/27 06:52:11;;;;;;;49.15;21.85;;;;;;;2.77;100.00;99120.63;4864971;29;20061;-92
2021/12/27 06:54:40;;;;;;;48.95;22.92;;;;;;;2.94;100.00;99143.53;4862234;29;20529;-89
2021/12/27 06:57:07;;;;;;;50.03;21.02;;;;;;;2.93;100.00;99137.47;4858322;29;20277;-89
2021/12/27 06:59:34;;;;;;;48.95;21.10;;;;;;;2.93;100.00;99129.63;4865145;29;20045;-89
2021/12/27 07:02:02;;;;;;;42.17;20.88;;;;;;;2.95;100.00;99132.19;4867173;29;20067;-89
2021/12/27 07:04:31;;;;;;;49.20;21.95;;;;;;;2.83;100.00;99108.16;4862403;29;20110;-88
2021/12/27 07:07:00;;;;;;;45.97;20.45;;;;;;;2.92;100.00;99130.53;4856438;29;20275;-88
2021/12/27 07:09:31;;;;;;;48.50;21.48;;;;;;;3.09;100.00;99153.44;4861089;29;20046;-87
2021/12/27 07:11:57;;;;;;;47.53;22.20;;;;;;;2.88;100.00;99100.16;4859139;29;20132;-89
2021/12/27 07:14:27;;;;;;;46.45;22.00;;;;;;;2.95;100.00;99114.72;4862842;29;20113;-89
2021/12/27 07:16:54;;;;;;;47.30;21.23;;;;;;;3.19;100.00;99160.03;4854072;29;20061;-89
2021/12/27 07:19:21;;;;;;;47.63;20.73;;;;;;;3.17;100.00;99156.63;4855417;29;20053;-89
2021/12/27 07:21:48;;;;;;;44.28;21.35;;;;;;;3.24;100.00;99160.72;4861384;29;20052;-89
2021/12/27 07:24:17;;;;;;;52.22;22.00;;;;;;;3.17;100.00;99152.25;4849139;29;20049;-90
2021/12/27 07:26:44;;;;;;;42.65;21.02;;;;;;;3.25;100.00;99161.59;4855135;29;20053;-89
2021/12/27 07:29:14;;;;;;;50.15;21.88;;;;;;;3.18;100.00;99148.72;4859578;29;20058;-89
2021/12/27 07:31:41;;;;;;;54.88;24.02;;;;;;;3.28;100.00;99156.25;4859456;29;20054;-90
2021/12/27 07:34:08;;;;;;;50.00;21.65;;;;;;;3.26;100.00;99161.53;4849685;29;20117;-90
2021/12/27 07:36:34;;;;;;;54.22;23.52;;;;;;;2.98;100.00;99101.53;4857526;29;20056;-92
2021/12/27 07:39:04;;;;;;;51.42;23.45;;;;;;;3.12;100.00;99116.72;4856770;29;20056;-92
2021/12/27 07:41:31;;;;;;;51.10;23.40;;;;;;;3.27;100.00;99136.22;4859827;29;20053;-90
2021/12/27 07:43:58;;;;;;;47.30;22.02;;;;;;;3.20;100.00;99125.13;4857969;29;20080;-90
2021/12/27 07:46:26;;;;;;;47.15;21.02;;;;;;;3.16;100.00;99116.53;4854240;29;20058;-93
2021/12/27 07:48:56;;;;;;;46.42;22.35;;;;;;;3.20;100.00;99129.50;4860688;29;20057;-92
2021/12/27 07:51:23;;;;;;;45.25;21.48;;;;;;;3.34;100.00;99151.63;4863882;29;20054;-92
2021/12/27 07:53:50;;;;;;;44.50;21.20;;;;;;;3.38;100.00;99162.84;4842899;29;20085;-91
2021/12/27 07:56:17;;;;;;;51.70;22.75;;;;;;;3.24;100.00;99133.72;4860241;29;20064;-91
2021/12/27 07:58:47;;;;;;;47.22;21.88;;;;;;;3.18;100.00;99125.19;4860620;29;20049;-94
2021/12/27 08:01:14;;;;;;;44.72;22.63;;;;;;;3.20;100.00;99124.28;4858078;29;20114;-91
2021/12/27 08:03:40;;;;;;;46.20;21.13;;;;;;;3.22;100.00;99139.00;4856387;29;20053;-91
2021/12/27 08:06:07;;;;;;;47.22;22.05;;;;;;;3.28;100.00;99146.63;4859692;29;20123;-91
2021/12/27 08:08:34;;;;;;;48.55;22.45;;;;;;;3.31;100.00;99146.50;4861115;29;20508;-90
2021/12/27 08:11:01;;;;;;;44.53;22.08;;;;;;;3.07;100.00;99100.34;4855564;29;20136;-90
2021/12/27 08:13:28;;;;;;;51.83;22.40;;;;;;;3.24;100.00;99137.19;4857136;29;20493;-91
2021/12/27 08:15:55;;;;;;;44.92;20.20;;;;;;;3.21;100.00;99124.22;4861348;29;20080;-91
2021/12/27 08:18:22;;;;;;;45.05;20.50;;;;;;;3.23;100.00;99135.47;4843275;29;20045;-91
2021/12/27 08:20:49;;;;;;;44.95;21.75;;;;;;;3.38;100.00;99152.38;4855964;29;20478;-92
2021/12/27 08:23:16;;;;;;;48.28;21.33;;;;;;;3.27;100.00;99131.84;4846249;29;20482;-92
2021/12/27 08:25:43;;;;;;;46.08;22.15;;;;;;;3.27;100.00;99124.00;4859184;29;20047;-93
2021/12/27 08:28:10;;;;;;;45.53;22.83;;;;;;;3.31;100.00;99135.19;4856084;29;20053;-92
2021/12/27 08:30:39;;;;;;;37.22;17.40;;;;;;;3.44;100.00;99146.91;4858546;29;20085;-91
2021/12/27 08:33:06;;;;;;;42.22;20.95;;;;;;;3.33;100.00;99131.59;4857567;29;20065;-91
2021/12/27 08:35:35;;;;;;;42.13;19.85;;;;;;;3.23;100.00;99111.09;4864401;29;20057;-92
2021/12/27 08:38:02;;;;;;;41.58;19.90;;;;;;;3.38;100.00;99137.53;4860145;29;20061;-93
2021/12/27 08:40:29;;;;;;;40.28;20.20;;;;;;;3.36;100.00;99138.47;4863395;29;20057;-92
2021/12/27 08:42:56;;;;;;;44.45;20.40;;;;;;;3.46;100.00;99161.63;4862881;29;20057;-92
2021/12/27 08:45:23;;;;;;;45.70;20.52;;;;;;;3.31;100.00;99129.94;4863574;29;20054;-91
2021/12/27 08:47:55;;;;;;;41.03;19.95;;;;;;;3.36;100.00;99126.25;4862493;29;20557;-91
2021/12/27 08:50:22;;;;;;;41.85;20.13;;;;;;;3.50;100.00;99141.44;4864105;29;20084;-92
2021/12/27 08:52:50;;;;;;;51.53;22.73;;;;;;;3.48;100.00;99125.78;4863008;29;20057;-91
2021/12/27 08:55:17;;;;;;;46.95;22.00;;;;;;;3.36;100.00;99089.63;4862054;29;20122;-92
2021/12/27 08:57:44;;;;;;;46.97;22.10;;;;;;;3.75;100.00;99136.13;4862886;29;20113;-91
2021/12/27 09:00:15;;;;;;;53.85;23.13;;;;;;;3.69;100.00;99113.63;4862987;29;20140;-91
2021/12/27 09:02:45;;;;;;;53.00;22.95;;;;;;;3.80;100.00;99119.28;4863626;29;20133;-91
2021/12/27 09:05:12;;;;;;;45.35;21.90;;;;;;;3.90;100.00;99121.56;4865333;29;20098;-90
2021/12/27 09:07:40;;;;;;;46.53;22.33;;;;;;;3.84;100.00;99093.84;4855265;29;20053;-91
2021/12/27 09:10:10;;;;;;;;;;;;;;;4.05;100.00;99118.31;4866159;29;20134;-91
2021/12/27 09:12:40;;;;;;;45.55;22.02;;;;;;;3.94;100.00;99095.16;4862850;29;19924;-90
2021/12/27 09:15:10;;;;;;;39.83;20.60;;;;;;;4.04;100.00;99100.91;4863476;29;20057;-91
2021/12/27 09:17:43;;;;;;;39.28;20.58;;;;;;;4.16;100.00;99116.09;4848033;29;20141;-93
2021/12/27 09:20:17;;;;;;;40.15;21.08;;;;;;;4.16;100.00;99124.81;4862579;29;20070;-92
2021/12/27 09:22:44;;;;;;;45.40;22.38;;;;;;;4.12;100.00;99109.28;4864961;29;20057;-90
2021/12/27 09:25:11;;;;;;;40.50;20.70;;;;;;;4.19;100.00;99129.09;4864806;29;20130;-91
2021/12/27 09:27:38;;;;;;;47.25;21.08;;;;;;;4.11;100.00;99120.66;4861048;29;20069;-90
2021/12/27 09:30:06;;;;;;;48.00;22.23;;;;;;;4.01;100.00;99083.53;4865063;29;20104;-91
2021/12/27 09:32:33;;;;;;;42.78;21.80;;;;;;;4.30;100.00;99139.09;4861005;29;20081;-91
2021/12/27 09:34:59;;;;;;;57.50;23.85;;;;;;;4.18;100.00;99111.66;4862663;29;20144;-91
2021/12/27 09:37:27;;;;;;;48.50;22.63;;;;;;;4.28;100.00;99120.81;4860176;29;20050;-91
2021/12/27 09:39:54;;;;;;;48.20;23.35;;;;;;;4.04;100.00;99074.69;4863034;29;20074;-91
2021/12/27 09:42:22;;;;;;;47.08;23.13;;;;;;;3.99;100.00;99067.03;4864876;29;20069;-90
2021/12/27 09:44:50;;;;;;;40.20;21.83;;;;;;;4.33;100.00;99116.25;4846959;29;20061;-91
2021/12/27 09:47:18;;;;;;;42.40;21.63;;;;;;;4.10;100.00;99064.81;4843304;29;20152;-91
2021/12/27 09:50:06;;;;;;;42.63;22.58;;;;;;;4.19;100.00;99081.91;4860231;29;20141;-92
2021/12/27 09:52:34;;;;;;;38.90;20.50;;;;;;;4.06;100.00;99059.78;4864069;29;20101;-92
2021/12/27 09:55:11;;;;;;;40.10;21.05;;;;;;;4.20;100.00;99087.09;4864540;29;20704;-92
2021/12/27 09:57:38;;;;;;;40.05;21.17;;;;;;;4.21;100.00;99077.47;4860682;29;20113;-92
2021/12/27 10:00:13;;;;;;;39.80;20.98;;;;;;;3.99;100.00;99047.84;4849729;29;20057;-92
2021/12/27 10:02:41;;;;;;;37.70;21.13;;;;;;;4.12;100.00;99062.13;4865010;29;20061;-91
2021/12/27 10:05:08;;;;;;;43.60;22.25;;;;;;;4.30;100.00;99089.31;4865495;29;20121;-92
2021/12/27 10:07:41;;;;;;;41.30;21.77;;;;;;;4.13;100.00;99055.97;4867877;29;20149;-91
2021/12/27 10:10:29;;;;;;;37.30;20.10;;;;;;;4.21;100.00;99059.97;4862956;29;20033;-92
2021/12/27 10:13:09;;;;;;;38.13;20.52;;;;;;;4.07;100.00;99025.66;4863336;29;20085;-92
2021/12/27 10:15:41;;;;;;;39.60;21.77;;;;;;;4.19;100.00;99043.47;4862457;29;20049;-91
2021/12/27 10:18:13;;;;;;;40.10;21.77;;;;;;;4.27;100.00;99056.22;4857701;29;20057;-91
2021/12/27 10:20:42;;;;;;;43.15;22.08;;;;;;;4.42;100.00;99070.44;4860923;29;20046;-91
2021/12/27 10:23:09;;;;;;;39.45;21.00;;;;;;;4.41;100.00;99064.34;4863618;29;20058;-90
2021/12/27 10:25:36;;;;;;;37.10;21.13;;;;;;;4.45;100.00;99073.78;4861932;29;20045;-91
2021/12/27 10:28:04;;;;;;;39.08;21.38;;;;;;;4.32;100.00;99054.28;4857072;29;20049;-90
2021/12/27 10:30:35;;;;;;;40.28;21.55;;;;;;;4.37;100.00;99067.19;4860106;29;20060;-90
2021/12/27 10:33:23;;;;;;;42.67;21.57;;;;;;;4.21;100.00;99046.03;4859200;29;20057;-90
2021/12/27 11:08:03;;;;;;;;;;;;;;;;;;;;;
2021/12/27 11:10:51;;;;;;;38.38;21.55;;;;;;;4.67;100.00;99015.19;4822733;29;20057;-90
2021/12/27 11:55:54;;;;;;;;;;;;;;;;;;;;;
2021/12/27 11:58:50;;;;;;;35.72;20.92;;;;;;;5.08;100.00;99018.53;4795242;29;20073;-88
2021/12/27 12:01:21;;;;;;;35.75;19.73;;;;;;;5.08;100.00;99006.25;4800581;29;20054;-88
2021/12/27 12:03:49;;;;;;;36.17;20.70;;;;;;;4.96;100.00;98977.13;4880114;29;20095;-88
2021/12/27 12:06:35;;;;;;;38.85;21.67;;;;;;;5.16;100.00;98988.41;4894858;29;20060;-88
2021/12/27 12:09:09;;;;;;;43.67;21.35;;;;;;;5.25;100.00;98980.06;4886472;29;20064;-88
2021/12/27 12:11:36;;;;;;;37.50;20.83;;;;;;;5.35;100.00;98985.75;4887948;29;20147;-88
2021/12/27 12:14:25;;;;;;;35.83;20.65;;;;;;;5.43;100.00;98990.63;4896513;29;20091;-90
2021/12/27 12:25:35;;;;;;;39.28;20.80;;;;;;;5.46;100.00;98972.09;5282253;24;20525;-90
2021/12/27 12:59:01;;;;;;;35.95;21.10;;;;;;;5.47;100.00;98964.16;5651011;23;20043;-92
2021/12/27 13:01:30;;;;;;;37.28;22.08;;;;;;;5.28;100.00;98943.19;4902744;29;20044;-90
2021/12/27 13:04:02;;;;;;;40.78;21.48;;;;;;;5.30;100.00;98927.38;4912658;29;20060;-89
2021/12/27 13:06:45;;;;;;;40.20;21.90;;;;;;;5.42;100.00;98945.13;4903141;29;20095;-91
2021/12/27 13:09:11;;;;;;;41.17;21.52;;;;;;;5.52;100.00;98950.78;4902873;29;20079;-92
2021/12/27 13:11:44;;;;;;;41.30;21.95;;;;;;;5.50;100.00;98955.28;4883612;29;20060;-90
2021/12/27 13:14:11;;;;;;;36.13;20.17;;;;;;;5.43;100.00;98943.38;4905059;29;20048;-91
2021/12/27 13:16:38;;;;;;;39.78;21.10;;;;;;;5.42;100.00;98942.50;4894851;29;20061;-91
2021/12/27 13:19:08;;;;;;;36.47;20.23;;;;;;;5.53;100.00;98957.72;4895057;29;20124;-91
2021/12/27 13:21:41;;;;;;;40.25;21.15;;;;;;;5.54;100.00;98959.44;4898461;29;20108;-92
2021/12/27 13:24:08;;;;;;;34.55;20.33;;;;;;;5.43;100.00;98935.50;4903430;29;20057;-91
2021/12/27 13:26:36;;;;;;;38.13;21.50;;;;;;;5.47;100.00;98952.78;4906892;29;22098;-91
2021/12/27 13:29:02;;;;;;;39.35;20.80;;;;;;;5.44;100.00;98937.19;4897353;29;20075;-92
2021/12/27 13:31:29;;;;;;;34.38;19.73;;;;;;;5.57;100.00;98959.28;4897330;29;20469;-90
2021/12/27 13:34:19;;;;;;;34.67;19.50;;;;;;;5.34;100.00;98905.31;4898571;29;20077;-90
2021/12/27 13:36:53;;;;;;;40.55;22.30;;;;;;;5.54;100.00;98930.53;4893307;29;20065;-90